Terminal Aerodrome Forecast
Issued by NWS Charleston, WV

Current Version | Previous Version | Graphics & Text | Print | Product List | Glossary On
Versions: 1 2 3 4 5 6 7 8 9 10 11 12 13 14 15 16 17 18 19 20 21 22 23 24
000
FTUS41 KRLX 161002 AAA
TAFBKW
TAF AMD
KBKW 161002Z 1610/1706 23010KT P6SM FEW028 BKN035 OVC070
     FM161200 28014G26KT 2SM SHRA OVC010
     FM161900 32011G17KT 2SM -SHRA OVC008
     FM162200 33010G16KT 5SM -SHRA OVC010
     FM170200 34006KT P6SM BKN011
     FM170300 34005KT P6SM SCT016=

USA.gov is the U.S. government's official web portal to all federal, state and local government web resources and services.